Time;durP1;ratioP1;P1;durP2;ratioP2;P2;SDS_P1;SDS_P2;PMS_P1;PMS_P2;Temp;Humidity;BMP_temperature;BMP_pressure;BME280_temperature;BME280_humidity;BME280_pressure;Samples;Min_cycle;Max_cycle;Signal;HPM_P1;HPM_P2
2023/08/24 00:01:25;;;;;;;9.98;8.30;;;;;;;17.08;100.00;101560.06;5094418;28;20050;-76
2023/08/24 00:03:51;;;;;;;12.95;8.15;;;;;;;17.04;100.00;101554.28;5093805;28;20472;-76
2023/08/24 00:06:16;;;;;;;9.68;7.35;;;;;;;17.08;100.00;101546.56;5093083;28;20104;-76
2023/08/24 00:08:42;;;;;;;12.63;7.90;;;;;;;17.04;100.00;101551.59;5075810;28;20031;-76
2023/08/24 00:11:07;;;;;;;11.57;7.70;;;;;;;16.93;100.00;101557.03;5093864;28;20032;-76
2023/08/24 00:13:33;;;;;;;13.07;8.43;;;;;;;16.87;100.00;101563.41;5093074;28;20746;-75
2023/08/24 00:15:58;;;;;;;14.70;8.18;;;;;;;16.89;100.00;101562.09;5075598;28;20036;-76
2023/08/24 00:18:25;;;;;;;13.73;8.43;;;;;;;16.88;100.00;101568.56;5092835;28;20473;-76
2023/08/24 00:20:50;;;;;;;12.13;9.07;;;;;;;16.87;100.00;101566.91;5093659;28;20395;-76
2023/08/24 00:23:16;;;;;;;13.25;8.93;;;;;;;16.85;100.00;101558.22;5092877;28;20146;-76
2023/08/24 00:25:42;;;;;;;14.02;8.88;;;;;;;16.82;100.00;101547.09;5093655;28;20035;-76
2023/08/24 00:28:07;;;;;;;13.20;6.95;;;;;;;16.82;100.00;101534.41;5093650;28;20020;-76
2023/08/24 00:30:32;;;;;;;12.40;7.50;;;;;;;16.84;100.00;101534.16;5092822;28;20032;-76
2023/08/24 00:32:58;;;;;;;13.18;7.68;;;;;;;16.80;100.00;101533.00;5075339;28;20027;-76
2023/08/24 00:35:23;;;;;;;11.57;7.28;;;;;;;16.66;100.00;101527.84;5074803;28;20408;-76
2023/08/24 00:37:50;;;;;;;13.25;7.95;;;;;;;16.59;100.00;101545.19;5093368;28;20039;-76
2023/08/24 00:40:16;;;;;;;14.75;8.13;;;;;;;16.39;100.00;101549.06;5093427;28;20492;-76
2023/08/24 00:46:03;;;;;;;13.27;8.65;;;;;;;16.47;100.00;101544.38;5093670;28;20047;-76
2023/08/24 00:48:29;;;;;;;12.43;8.00;;;;;;;16.51;100.00;101537.47;5074572;28;20048;-76
2023/08/24 00:51:01;;;;;;;9.50;7.15;;;;;;;16.55;100.00;101538.63;5093260;28;20054;-75
2023/08/24 00:53:28;;;;;;;10.45;7.65;;;;;;;16.54;100.00;101531.59;5092270;28;20075;-76
2023/08/24 00:55:54;;;;;;;12.48;8.27;;;;;;;16.51;100.00;101534.78;5074943;28;20028;-75
2023/08/24 00:58:20;;;;;;;14.43;8.65;;;;;;;16.50;100.00;101535.84;5093071;28;20101;-76
2023/08/24 01:00:46;;;;;;;9.40;7.53;;;;;;;16.44;100.00;101529.47;5074193;28;20048;-75
2023/08/24 01:03:11;;;;;;;12.13;7.57;;;;;;;16.45;100.00;101533.00;5074779;28;20051;-75
2023/08/24 01:05:36;;;;;;;11.82;7.93;;;;;;;16.51;100.00;101534.78;5092072;28;20056;-76
2023/08/24 01:08:02;;;;;;;12.80;8.25;;;;;;;16.56;100.00;101526.78;5074838;28;20457;-75
2023/08/24 01:10:36;;;;;;;11.27;7.80;;;;;;;16.61;100.00;101527.72;5092896;28;20178;-76
2023/08/24 01:13:10;;;;;;;10.50;7.55;;;;;;;16.68;100.00;101517.63;5083873;28;20040;-76
2023/08/24 01:15:49;;;;;;;14.20;7.78;;;;;;;16.62;100.00;101520.44;5092759;28;20032;-75
2023/08/24 01:18:18;;;;;;;10.23;7.88;;;;;;;16.58;100.00;101528.19;5091016;28;20446;-75
2023/08/24 01:24:24;;;;;;;15.45;8.60;;;;;;;16.57;100.00;101533.81;5092873;28;20035;-75
2023/08/24 01:26:50;;;;;;;12.80;8.15;;;;;;;16.49;100.00;101505.31;5092659;28;20541;-75
2023/08/24 01:29:15;;;;;;;12.75;8.18;;;;;;;16.65;100.00;101511.84;5092006;28;20492;-75
2023/08/24 01:31:41;;;;;;;11.40;9.35;;;;;;;16.70;100.00;101504.69;5074372;28;20103;-75
2023/08/24 01:34:06;;;;;;;14.27;9.83;;;;;;;16.79;100.00;101509.75;5074426;28;20032;-75
2023/08/24 01:36:31;;;;;;;14.33;8.63;;;;;;;16.84;100.00;101517.94;5091794;28;20290;-76
2023/08/24 01:39:26;;;;;;;9.68;7.90;;;;;;;16.94;100.00;101526.25;5074393;28;20348;-76
2023/08/24 01:41:53;;;;;;;12.35;9.07;;;;;;;16.94;100.00;101520.84;5089943;28;20120;-76
2023/08/24 01:44:21;;;;;;;17.42;8.32;;;;;;;16.94;100.00;101518.16;5074376;28;20035;-76
2023/08/24 01:46:49;;;;;;;15.27;8.82;;;;;;;16.96;100.00;101522.25;5073503;28;20404;-76
2023/08/24 01:49:17;;;;;;;12.63;8.77;;;;;;;17.07;100.00;101514.38;5092423;28;20062;-75
2023/08/24 01:51:45;;;;;;;12.73;9.65;;;;;;;17.08;100.00;101511.41;5091078;28;20024;-75
2023/08/24 01:54:10;;;;;;;11.82;8.88;;;;;;;17.12;100.00;101512.56;5091372;28;20119;-76
2023/08/24 01:59:57;;;;;;;12.45;8.90;;;;;;;17.17;100.00;101528.88;5092434;28;20042;-76
2023/08/24 02:02:24;;;;;;;11.70;9.37;;;;;;;17.17;100.00;101536.16;5092010;28;20020;-76
2023/08/24 02:04:49;;;;;;;15.15;9.85;;;;;;;17.15;100.00;101533.72;5091191;28;20804;-76
2023/08/24 02:07:14;;;;;;;10.00;8.52;;;;;;;17.16;100.00;101523.72;5092157;28;20032;-76
2023/08/24 02:09:39;;;;;;;9.85;8.77;;;;;;;17.20;100.00;101524.88;5092009;28;20023;-76
2023/08/24 02:12:05;;;;;;;16.60;9.07;;;;;;;17.24;100.00;101515.22;5073352;28;20082;-76
2023/08/24 02:14:30;;;;;;;12.43;8.90;;;;;;;17.17;100.00;101501.84;5091868;28;20712;-76
2023/08/24 02:16:55;;;;;;;9.77;8.10;;;;;;;17.20;100.00;101497.84;5091095;28;20477;-76
2023/08/24 02:19:21;;;;;;;15.13;8.90;;;;;;;17.21;100.00;101511.13;5091949;28;20270;-75
2023/08/24 02:21:46;;;;;;;11.75;8.68;;;;;;;17.19;100.00;101517.84;5091166;28;20450;-76
2023/08/24 02:24:11;;;;;;;12.95;8.63;;;;;;;17.19;100.00;101518.66;5073385;28;20040;-76
2023/08/24 02:26:37;;;;;;;10.25;8.82;;;;;;;17.17;100.00;101509.97;5091708;28;20028;-76
2023/08/24 02:32:24;;;;;;;16.70;9.55;;;;;;;17.20;100.00;101514.06;5091733;28;20273;-76
2023/08/24 02:34:49;;;;;;;13.10;9.55;;;;;;;17.21;100.00;101518.41;5090548;28;20044;-76
2023/08/24 02:37:14;;;;;;;15.13;9.63;;;;;;;17.23;100.00;101519.81;5073349;28;20479;-76
2023/08/24 02:39:40;;;;;;;13.63;9.53;;;;;;;17.28;100.00;101503.69;5072778;28;20369;-76
2023/08/24 02:42:05;;;;;;;13.53;10.07;;;;;;;17.28;100.00;101489.34;5073354;28;20281;-75
2023/08/24 02:44:31;;;;;;;14.82;10.75;;;;;;;17.25;100.00;101479.84;5091563;28;20630;-74
2023/08/24 02:46:57;;;;;;;12.65;9.55;;;;;;;17.17;100.00;101472.13;5090724;28;20492;-75
2023/08/24 02:49:22;;;;;;;17.23;10.32;;;;;;;17.12;100.00;101463.13;5091397;28;20438;-75
2023/08/24 02:51:47;;;;;;;16.85;10.70;;;;;;;16.90;100.00;101463.78;5090591;28;20036;-75
2023/08/24 02:54:13;;;;;;;19.70;11.15;;;;;;;16.78;100.00;101454.09;5091352;28;20040;-75
2023/08/24 02:56:38;;;;;;;19.58;12.45;;;;;;;16.68;100.00;101449.28;5091440;28;20032;-76
2023/08/24 02:59:03;;;;;;;16.67;11.57;;;;;;;16.58;100.00;101439.06;5090527;28;20068;-76
2023/08/24 03:01:29;;;;;;;17.92;12.05;;;;;;;16.52;100.00;101428.41;5091204;28;20555;-76
2023/08/24 03:03:55;;;;;;;19.10;13.23;;;;;;;16.42;100.00;101410.13;5090352;28;20042;-77
2023/08/24 03:06:20;;;;;;;17.83;12.50;;;;;;;16.28;100.00;101387.16;5091281;28;20020;-77
2023/08/24 03:08:45;;;;;;;20.20;13.95;;;;;;;16.23;100.00;101360.91;5076313;28;20020;-77
2023/08/24 03:11:11;;;;;;;21.57;14.83;;;;;;;16.13;100.00;101346.34;5094073;28;20476;-77
2023/08/24 03:13:39;;;;;;;16.60;11.20;;;;;;;16.17;100.00;101347.50;5094824;28;20278;-76
2023/08/24 03:16:06;;;;;;;21.13;15.60;;;;;;;16.01;100.00;101349.91;5093877;28;20770;-76
2023/08/24 03:18:31;;;;;;;26.27;16.90;;;;;;;15.99;100.00;101362.81;5094664;28;20031;-77
2023/08/24 03:20:57;;;;;;;23.40;17.15;;;;;;;16.04;100.00;101364.78;5076491;28;20020;-77
2023/08/24 03:23:22;;;;;;;24.02;18.00;;;;;;;16.09;100.00;101348.72;5094140;28;20043;-77
2023/08/24 03:25:47;;;;;;;24.97;15.93;;;;;;;16.10;100.00;101326.06;5094790;28;20029;-77
2023/08/24 03:28:13;;;;;;;24.00;15.98;;;;;;;16.14;100.00;101312.91;5076124;28;20365;-76
2023/08/24 03:30:44;;;;;;;25.57;16.73;;;;;;;16.18;100.00;101317.59;5095021;28;20036;-78
2023/08/24 03:33:10;;;;;;;26.85;17.52;;;;;;;16.16;100.00;101319.72;5075893;28;20293;-79
2023/08/24 03:35:35;;;;;;;24.97;18.30;;;;;;;16.09;100.00;101324.44;5094607;28;20032;-78
2023/08/24 03:38:00;;;;;;;29.33;19.42;;;;;;;16.05;100.00;101324.09;5094583;28;20270;-77
2023/08/24 03:40:26;;;;;;;29.83;18.92;;;;;;;16.07;100.00;101323.84;5094114;28;20118;-80
2023/08/24 03:42:53;;;;;;;31.00;20.13;;;;;;;16.04;100.00;101325.16;5094844;28;20028;-78
2023/08/24 03:45:18;;;;;;;31.02;21.10;;;;;;;16.04;100.00;101321.63;5093525;28;20044;-80
2023/08/24 03:47:44;;;;;;;31.13;20.85;;;;;;;16.06;100.00;101319.50;5094271;28;20415;-77
2023/08/24 03:50:09;;;;;;;32.40;22.48;;;;;;;16.07;100.00;101331.94;5094188;28;20032;-77
2023/08/24 03:52:34;;;;;;;37.80;21.17;;;;;;;16.10;100.00;101321.50;5093423;28;20463;-77
2023/08/24 03:55:00;;;;;;;35.27;22.80;;;;;;;16.11;100.00;101323.13;5094204;28;20035;-77
2023/08/24 03:57:25;;;;;;;33.87;22.43;;;;;;;16.15;100.00;101328.88;5093268;28;20296;-77
2023/08/24 03:59:50;;;;;;;41.03;21.87;;;;;;;16.22;100.00;101340.38;5094154;28;20654;-76
2023/08/24 04:05:37;;;;;;;34.83;20.70;;;;;;;16.26;100.00;101341.53;5094266;28;20420;-77
2023/08/24 04:08:04;;;;;;;44.35;23.35;;;;;;;16.22;100.00;101334.16;5094070;28;20028;-77
2023/08/24 04:10:29;;;;;;;30.83;21.42;;;;;;;16.22;100.00;101344.94;5086003;28;20047;-77
2023/08/24 04:12:54;;;;;;;33.55;21.30;;;;;;;16.26;100.00;101338.81;5075723;28;20027;-78
2023/08/24 04:15:20;;;;;;;34.42;21.55;;;;;;;16.21;100.00;101330.63;5075209;28;20032;-77
2023/08/24 04:17:46;;;;;;;35.00;22.27;;;;;;;16.16;100.00;101317.00;5093180;28;20016;-78
2023/08/24 04:20:12;;;;;;;32.47;22.17;;;;;;;16.23;100.00;101330.38;5093063;28;20052;-77
2023/08/24 04:22:37;;;;;;;37.03;23.02;;;;;;;16.22;100.00;101345.75;5093772;28;20047;-77
2023/08/24 04:25:03;;;;;;;33.90;22.13;;;;;;;16.18;100.00;101336.47;5093810;28;20039;-78
2023/08/24 04:27:28;;;;;;;36.15;22.80;;;;;;;16.21;100.00;101330.63;5075044;28;20847;-77
2023/08/24 04:29:54;;;;;;;34.85;23.13;;;;;;;16.22;100.00;101340.38;5093617;28;20028;-77
2023/08/24 04:32:19;;;;;;;33.70;23.75;;;;;;;16.21;100.00;101333.31;5092791;28;20059;-77
2023/08/24 04:34:44;;;;;;;34.30;24.07;;;;;;;16.16;100.00;101329.69;5075578;28;20564;-77
2023/08/24 04:37:10;;;;;;;39.25;24.63;;;;;;;16.15;100.00;101331.56;5075326;28;20286;-77
2023/08/24 04:42:56;;;;;;;36.53;23.98;;;;;;;16.13;100.00;101324.75;5093759;28;20128;-76
2023/08/24 04:45:22;;;;;;;35.27;23.93;;;;;;;16.14;100.00;101338.00;5092833;28;20052;-77
2023/08/24 04:47:47;;;;;;;38.30;24.00;;;;;;;16.08;100.00;101337.09;5093464;28;20286;-77
2023/08/24 04:50:12;;;;;;;36.33;24.90;;;;;;;16.05;100.00;101329.47;5092600;28;20476;-76
2023/08/24 04:52:38;;;;;;;40.13;25.33;;;;;;;16.06;100.00;101335.69;5093379;28;20285;-77
2023/08/24 04:55:03;;;;;;;40.17;25.60;;;;;;;16.01;100.00;101328.31;5075169;28;20127;-77
2023/08/24 04:57:28;;;;;;;36.55;25.77;;;;;;;16.02;100.00;101329.16;5092489;28;20313;-77
2023/08/24 04:59:56;;;;;;;35.87;25.77;;;;;;;15.96;100.00;101320.13;5093449;28;20035;-77
2023/08/24 05:05:43;;;;;;;42.92;27.60;;;;;;;15.95;100.00;101323.88;5093420;28;20399;-77
2023/08/24 05:08:11;;;;;;;37.95;27.30;;;;;;;16.00;100.00;101329.38;5092510;28;20040;-77
2023/08/24 05:10:37;;;;;;;41.30;27.42;;;;;;;15.92;100.00;101329.75;5093278;28;20496;-81
2023/08/24 05:13:02;;;;;;;39.40;27.05;;;;;;;15.98;100.00;101344.16;5094902;28;20034;-80
2023/08/24 05:15:28;;;;;;;46.45;26.75;;;;;;;16.01;100.00;101336.41;5075108;28;20064;-81
2023/08/24 05:17:55;;;;;;;46.20;29.50;;;;;;;16.08;100.00;101344.38;5092576;28;20020;-81
2023/08/24 05:20:24;;;;;;;45.38;30.27;;;;;;;16.18;100.00;101333.78;5096035;28;20032;-81
2023/08/24 05:22:49;;;;;;;47.83;31.67;;;;;;;16.40;100.00;101328.56;5100759;28;20556;-80
2023/08/24 05:25:16;;;;;;;50.92;33.20;;;;;;;16.49;100.00;101326.31;5075815;28;20059;-76
2023/08/24 05:27:43;;;;;;;49.85;32.60;;;;;;;16.80;100.00;101322.31;5091948;28;20484;-81
2023/08/24 05:30:09;;;;;;;51.30;31.27;;;;;;;16.92;100.00;101307.66;5092205;28;20073;-82
2023/08/24 05:32:38;;;;;;;46.40;30.73;;;;;;;17.15;100.00;101313.97;5075387;28;20135;-82
2023/08/24 05:35:08;;;;;;;41.58;29.40;;;;;;;17.31;100.00;101316.66;5079141;28;20103;-82
2023/08/24 05:44:39;;;;;;;32.25;25.50;;;;;;;17.90;100.00;101303.47;5094788;28;20107;-80
2023/08/24 05:47:04;;;;;;;28.80;23.65;;;;;;;18.08;100.00;101299.63;5096977;28;20123;-80
2023/08/24 05:49:30;;;;;;;34.75;24.00;;;;;;;18.25;100.00;101304.97;5096398;28;20063;-80
2023/08/24 05:55:17;;;;;;;30.58;22.88;;;;;;;18.57;100.00;101294.22;5095510;28;20472;-82
2023/08/24 05:57:43;;;;;;;32.22;22.48;;;;;;;18.78;100.00;101300.66;5094112;28;20430;-80
2023/08/24 06:00:09;;;;;;;28.47;21.53;;;;;;;18.88;100.00;101301.56;5075205;28;20024;-80
2023/08/24 06:02:35;;;;;;;26.25;21.15;;;;;;;18.99;100.00;101291.63;5093941;28;20773;-82
2023/08/24 06:05:01;;;;;;;27.48;21.02;;;;;;;19.07;100.00;101279.47;5091789;28;20105;-81
2023/08/24 06:07:26;;;;;;;31.58;21.20;;;;;;;19.35;100.00;101271.00;5093192;28;20028;-80
2023/08/24 06:09:51;;;;;;;28.57;21.27;;;;;;;19.84;100.00;101272.66;5091532;28;20113;-80
2023/08/24 06:15:38;;;;;;;28.10;21.45;;;;;;;20.73;100.00;101242.44;5092697;28;20408;-81
2023/08/24 06:18:04;;;;;;;26.73;21.03;;;;;;;20.98;100.00;101233.47;5074610;28;20107;-80
2023/08/24 06:20:29;;;;;;;27.75;21.65;;;;;;;21.48;100.00;101248.09;5092676;28;20285;-80
2023/08/24 06:22:55;;;;;;;25.73;19.42;;;;;;;21.95;100.00;101251.16;5073709;28;20055;-80
2023/08/24 06:25:20;;;;;;;26.25;19.77;;;;;;;22.44;100.00;101255.81;5093421;28;20032;-81
2023/08/24 06:27:46;;;;;;;22.23;17.73;;;;;;;23.03;100.00;101263.00;5091930;28;20055;-80
2023/08/24 06:30:11;;;;;;;21.97;18.87;;;;;;;23.62;100.00;101270.06;5093025;28;20031;-81
2023/08/24 06:32:36;;;;;;;25.80;18.45;;;;;;;24.01;100.00;101269.06;5093292;28;20335;-80
2023/08/24 06:35:03;;;;;;;24.10;17.98;;;;;;;24.40;100.00;101274.28;5092586;28;20043;-80
2023/08/24 06:37:28;;;;;;;26.23;17.48;;;;;;;24.91;100.00;101274.28;5074905;28;20036;-81
2023/08/24 06:39:54;;;;;;;27.52;18.02;;;;;;;25.24;100.00;101264.16;5091485;28;20156;-82
2023/08/24 06:42:19;;;;;;;20.17;16.80;;;;;;;25.66;100.00;101269.63;5092002;28;20055;-81
2023/08/24 06:44:44;;;;;;;21.77;16.90;;;;;;;25.98;100.00;101268.72;5092372;28;20297;-82
2023/08/24 06:47:09;;;;;;;18.47;16.43;;;;;;;26.27;100.00;101276.59;5092449;28;20347;-81
2023/08/24 06:49:35;;;;;;;23.47;15.87;;;;;;;26.61;96.15;101268.69;5093849;28;20034;-82
2023/08/24 06:52:00;;;;;;;24.13;16.60;;;;;;;26.92;95.42;101276.16;5073969;28;20071;-81
2023/08/24 06:54:25;;;;;;;21.70;16.20;;;;;;;27.39;93.59;101280.16;5092864;28;20032;-81
2023/08/24 06:56:50;;;;;;;18.27;15.60;;;;;;;27.89;92.24;101275.19;5095193;28;20353;-81
2023/08/24 06:59:16;;;;;;;20.67;15.67;;;;;;;28.34;86.35;101266.72;5092550;28;20758;-81
2023/08/24 07:01:41;;;;;;;21.23;15.77;;;;;;;28.92;85.18;101266.19;5074108;28;20031;-80
2023/08/24 07:04:06;;;;;;;20.80;14.70;;;;;;;29.17;83.31;101264.47;5094972;28;20298;-81
2023/08/24 07:06:34;;;;;;;17.00;13.30;;;;;;;29.14;78.71;101275.34;5076734;28;20092;-81
2023/08/24 07:08:59;;;;;;;19.02;14.35;;;;;;;28.83;76.31;101268.09;5091375;28;20424;-81
2023/08/24 07:14:46;;;;;;;18.73;14.98;;;;;;;28.66;80.59;101257.13;5095558;28;20085;-80
2023/08/24 07:17:11;;;;;;;16.67;14.47;;;;;;;28.89;76.72;101249.50;5092797;28;20399;-81
2023/08/24 07:19:37;;;;;;;18.37;15.23;;;;;;;29.15;77.57;101247.47;5092814;28;20063;-81
2023/08/24 07:22:02;;;;;;;16.00;14.30;;;;;;;29.49;75.18;101249.34;5091658;28;20373;-81
2023/08/24 07:24:29;;;;;;;19.30;14.38;;;;;;;29.70;75.79;101245.78;5093773;28;20032;-80
2023/08/24 07:26:54;;;;;;;19.10;14.57;;;;;;;30.08;72.65;101245.75;5090669;28;20048;-80
2023/08/24 07:29:21;;;;;;;17.75;14.35;;;;;;;30.25;68.78;101244.78;5092660;28;20361;-81
2023/08/24 07:35:08;;;;;;;20.95;15.43;;;;;;;30.88;68.39;101246.31;5092349;28;20050;-82
2023/08/24 07:37:33;;;;;;;19.73;14.60;;;;;;;31.08;64.77;101259.28;5074948;28;20027;-81
2023/08/24 07:39:58;;;;;;;21.80;14.43;;;;;;;31.05;65.52;101250.88;5091928;28;20067;-81
2023/08/24 07:42:24;;;;;;;19.50;14.77;;;;;;;30.90;64.72;101251.50;5091091;28;20059;-80
2023/08/24 07:44:50;;;;;;;16.93;14.20;;;;;;;30.75;65.86;101236.41;5090421;28;20064;-80
2023/08/24 07:47:16;;;;;;;18.60;15.10;;;;;;;30.63;65.31;101247.41;5073481;28;20278;-81
2023/08/24 07:49:44;;;;;;;19.55;15.30;;;;;;;30.42;70.42;101231.66;5073604;28;20031;-80
2023/08/24 07:52:11;;;;;;;20.65;14.73;;;;;;;30.33;65.59;101241.94;5090241;28;20047;-79
2023/08/24 07:54:37;;;;;;;32.25;14.85;;;;;;;30.28;67.76;101238.59;5075548;28;20115;-81
2023/08/24 07:57:02;;;;;;;17.30;13.73;;;;;;;30.11;67.07;101239.56;5093618;28;20461;-78
2023/08/24 07:59:27;;;;;;;18.55;14.98;;;;;;;29.79;67.48;101227.28;5094298;28;20111;-79
2023/08/24 08:05:14;;;;;;;17.10;14.75;;;;;;;29.46;68.84;101252.72;5094389;28;20043;-79
2023/08/24 08:07:40;;;;;;;20.02;14.95;;;;;;;29.52;71.83;101245.91;5075401;28;20023;-78
2023/08/24 08:10:06;;;;;;;19.35;14.80;;;;;;;29.54;67.58;101249.13;5093849;28;20059;-78
2023/08/24 08:12:32;;;;;;;19.27;14.10;;;;;;;29.66;69.49;101240.16;5075956;28;20036;-79
2023/08/24 08:14:57;;;;;;;19.58;14.90;;;;;;;30.01;69.94;101245.44;5093195;28;20052;-79
2023/08/24 08:17:23;;;;;;;20.27;14.23;;;;;;;30.11;68.46;101243.13;5075944;28;20481;-79
2023/08/24 08:19:48;;;;;;;18.58;14.77;;;;;;;30.19;66.25;101238.69;5093340;28;20032;-79
2023/08/24 08:22:14;;;;;;;18.38;15.77;;;;;;;30.39;66.47;101231.53;5075949;28;20028;-80
2023/08/24 08:24:39;;;;;;;19.97;15.93;;;;;;;30.83;65.65;101232.75;5094022;28;20031;-79
2023/08/24 08:27:04;;;;;;;16.13;14.40;;;;;;;30.82;63.51;101231.94;5093135;28;20070;-79
2023/08/24 08:29:29;;;;;;;20.80;14.33;;;;;;;30.95;65.22;101229.22;5075861;28;20031;-78
2023/08/24 08:31:55;;;;;;;22.00;14.77;;;;;;;31.10;65.37;101214.72;5093090;28;20122;-78
2023/08/24 08:34:20;;;;;;;17.57;14.67;;;;;;;31.20;64.05;101216.25;5075644;28;20032;-78
2023/08/24 08:36:45;;;;;;;17.83;14.00;;;;;;;31.34;62.96;101213.97;5093585;28;20536;-78
2023/08/24 08:39:11;;;;;;;20.38;14.32;;;;;;;31.22;63.07;101197.34;5075036;28;20044;-78
2023/08/24 08:41:43;;;;;;;22.88;14.07;;;;;;;30.86;64.34;101200.88;5093656;28;20103;-78
2023/08/24 08:44:13;;;;;;;24.00;14.43;;;;;;;30.35;67.10;101187.22;5092812;28;20595;-78
2023/08/24 08:46:40;;;;;;;19.38;13.40;;;;;;;30.24;70.59;101179.72;5093488;28;20081;-77
2023/08/24 08:49:06;;;;;;;15.52;13.18;;;;;;;29.98;69.35;101174.38;5093586;28;20032;-78
2023/08/24 08:51:33;;;;;;;24.70;14.85;;;;;;;29.85;69.23;101171.56;5092549;28;20055;-78
2023/08/24 08:53:58;;;;;;;18.38;13.90;;;;;;;29.65;69.11;101163.28;5075296;28;20480;-78
2023/08/24 08:56:23;;;;;;;17.67;13.47;;;;;;;29.27;70.24;101161.38;5092519;28;20047;-77
2023/08/24 08:58:50;;;;;;;18.23;13.73;;;;;;;28.98;72.13;101143.72;5093451;28;20016;-76
2023/08/24 09:01:17;;;;;;;18.65;15.10;;;;;;;28.92;72.62;101130.47;5074850;28;20514;-77
2023/08/24 09:03:43;;;;;;;18.15;14.73;;;;;;;28.94;73.87;101139.19;5092718;28;20484;-77
2023/08/24 09:06:09;;;;;;;18.05;15.88;;;;;;;28.82;73.66;101130.78;5075071;28;20031;-78
2023/08/24 09:08:34;;;;;;;22.55;17.13;;;;;;;28.79;75.85;101117.66;5074365;28;20040;-78
2023/08/24 09:14:21;;;;;;;21.55;18.38;;;;;;;29.17;77.47;101107.47;5093228;28;20063;-78
2023/08/24 09:16:46;;;;;;;22.63;18.50;;;;;;;29.06;77.08;101099.91;5092938;28;20016;-77
2023/08/24 09:19:12;;;;;;;19.30;17.30;;;;;;;28.78;75.60;101096.78;5092347;28;20279;-78
2023/08/24 09:21:39;;;;;;;22.40;18.25;;;;;;;28.55;81.40;101088.78;5093017;28;20270;-78
2023/08/24 09:24:06;;;;;;;20.10;17.02;;;;;;;28.49;81.36;101073.59;5092746;28;20123;-78
2023/08/24 09:26:34;;;;;;;19.95;17.63;;;;;;;28.66;78.90;101079.03;5091942;28;20511;-78
2023/08/24 09:29:11;;;;;;;23.45;17.83;;;;;;;28.73;79.35;101072.19;5092777;28;20400;-78
2023/08/24 09:31:39;;;;;;;23.15;17.67;;;;;;;28.69;80.43;101085.81;5074027;28;20044;-77
2023/08/24 09:34:08;;;;;;;19.83;17.08;;;;;;;28.65;79.45;101079.38;5074488;28;20449;-78
2023/08/24 09:36:35;;;;;;;20.85;16.77;;;;;;;28.71;81.65;101094.56;5074529;28;20027;-77
2023/08/24 09:39:00;;;;;;;21.98;18.00;;;;;;;28.53;81.16;101096.56;5074343;28;20131;-78
2023/08/24 09:41:53;;;;;;;21.67;17.48;;;;;;;28.36;81.83;101113.13;5092923;28;20056;-78
2023/08/24 09:44:18;;;;;;;;;;;;;;;28.48;80.94;101129.75;5090323;28;20098;-79
2023/08/24 09:46:44;;;;;;;25.23;15.32;;;;;;;28.21;81.81;101130.09;5092490;28;19912;-77
2023/08/24 09:49:11;;;;;;;23.23;15.50;;;;;;;28.19;82.12;101137.88;5073524;28;20090;-78
2023/08/24 09:51:38;;;;;;;18.33;15.68;;;;;;;28.06;82.48;101121.22;5092549;28;20032;-78
2023/08/24 09:54:08;;;;;;;19.58;15.60;;;;;;;27.99;84.97;101126.38;5092300;28;20369;-78
2023/08/24 09:56:36;;;;;;;18.67;14.98;;;;;;;27.94;84.35;101132.06;5091575;28;20040;-77
2023/08/24 09:59:21;;;;;;;23.40;15.38;;;;;;;27.92;83.81;101130.78;5092216;28;20468;-79
2023/08/24 10:01:48;;;;;;;20.75;15.68;;;;;;;27.90;85.60;101136.59;5091511;28;20047;-78
2023/08/24 10:04:17;;;;;;;35.25;15.63;;;;;;;27.90;84.68;101133.03;5092250;28;20064;-78
2023/08/24 10:06:44;;;;;;;20.30;14.30;;;;;;;27.94;86.59;101140.31;5073487;28;20387;-78
2023/08/24 10:09:18;;;;;;;18.85;14.38;;;;;;;27.91;83.76;101153.91;5091845;28;20033;-77
2023/08/24 10:11:56;;;;;;;19.45;14.02;;;;;;;27.67;87.14;101149.66;5092181;28;20040;-78
2023/08/24 10:14:28;;;;;;;18.27;14.02;;;;;;;27.58;86.04;101159.00;5091229;28;20132;-78
2023/08/24 10:16:55;;;;;;;18.13;14.18;;;;;;;27.42;88.32;101161.38;5091455;28;20028;-78
2023/08/24 10:19:22;;;;;;;19.15;13.63;;;;;;;27.44;89.39;101161.88;5091168;28;20561;-79
2023/08/24 10:21:50;;;;;;;18.88;14.88;;;;;;;27.33;93.57;101144.09;5092126;28;20032;-79
2023/08/24 10:24:16;;;;;;;26.50;14.00;;;;;;;27.20;91.63;101142.28;5091845;28;20027;-79
2023/08/24 10:26:42;;;;;;;18.70;14.27;;;;;;;27.07;92.19;101135.75;5091079;28;20089;-79
2023/08/24 10:29:07;;;;;;;17.70;13.38;;;;;;;27.03;93.09;101132.03;5091783;28;20073;-79
2023/08/24 10:31:34;;;;;;;18.67;13.93;;;;;;;27.03;97.39;101132.84;5091072;28;20511;-79
2023/08/24 10:34:01;;;;;;;17.60;13.45;;;;;;;26.98;100.00;101151.38;5091782;28;20028;-79
2023/08/24 10:36:27;;;;;;;16.63;14.70;;;;;;;26.90;100.00;101152.16;5091342;28;20031;-79
2023/08/24 10:38:56;;;;;;;20.77;15.60;;;;;;;26.59;100.00;101152.94;5091586;28;20499;-79
2023/08/24 10:41:26;;;;;;;19.20;15.57;;;;;;;26.42;100.00;101161.06;5093108;28;20483;-80
2023/08/24 10:43:51;;;;;;;22.10;16.60;;;;;;;26.45;100.00;101164.00;5091362;28;20462;-79
2023/08/24 10:46:17;;;;;;;21.60;15.73;;;;;;;26.34;100.00;101161.84;5091731;28;20024;-79
2023/08/24 10:48:42;;;;;;;21.63;15.48;;;;;;;26.28;100.00;101168.50;5090807;28;20282;-79
2023/08/24 10:51:17;;;;;;;18.77;14.90;;;;;;;26.21;100.00;101164.28;5073577;28;20028;-79
2023/08/24 10:53:52;;;;;;;29.98;16.45;;;;;;;26.19;100.00;101160.22;5091580;28;20054;-79
2023/08/24 10:56:19;;;;;;;18.85;15.52;;;;;;;26.17;100.00;101155.06;5090867;28;20496;-79
2023/08/24 11:02:18;;;;;;;24.95;15.88;;;;;;;26.35;100.00;101136.84;5091683;28;20043;-79
2023/08/24 11:05:04;;;;;;;22.15;15.75;;;;;;;26.62;100.00;101135.88;5073583;28;20028;-79
2023/08/24 11:07:29;;;;;;;21.30;14.52;;;;;;;26.87;100.00;101131.59;5072898;28;20081;-78
2023/08/24 11:09:55;;;;;;;14.43;12.03;;;;;;;26.94;100.00;101133.91;5073684;28;20427;-76
2023/08/24 11:12:20;;;;;;;16.83;11.50;;;;;;;26.84;100.00;101138.53;5090487;28;20318;-79
2023/08/24 11:14:58;;;;;;;17.03;10.10;;;;;;;26.81;99.97;101138.38;5091176;28;20308;-77
2023/08/24 11:17:24;;;;;;;13.88;9.90;;;;;;;26.68;99.99;101131.06;5073169;28;20681;-78
2023/08/24 11:19:51;;;;;;;12.52;9.55;;;;;;;26.72;98.68;101124.63;5090547;28;20043;-78
2023/08/24 11:22:17;;;;;;;14.85;9.60;;;;;;;26.75;98.67;101115.75;5091458;28;20031;-79
2023/08/24 11:24:43;;;;;;;14.75;9.85;;;;;;;26.69;97.00;101105.25;5090284;28;20044;-79
2023/08/24 11:27:08;;;;;;;14.13;10.00;;;;;;;26.77;96.95;101105.25;5092520;28;20431;-80
2023/08/24 11:29:34;;;;;;;15.50;9.98;;;;;;;26.62;95.23;101094.72;5094001;28;20081;-79
2023/08/24 11:31:59;;;;;;;14.07;8.73;;;;;;;26.46;98.08;101090.75;5093808;28;20044;-79
2023/08/24 11:34:24;;;;;;;12.55;9.65;;;;;;;26.18;100.00;101074.44;5094565;28;20024;-78
2023/08/24 11:36:50;;;;;;;16.25;9.98;;;;;;;25.83;99.93;101076.13;5094695;28;20059;-79
2023/08/24 11:39:20;;;;;;;15.88;9.43;;;;;;;25.08;100.00;101064.91;5076292;28;20040;-77
2023/08/24 11:45:14;;;;;;;17.00;9.52;;;;;;;24.29;100.00;101054.13;5094651;28;20055;-79
2023/08/24 11:47:40;;;;;;;13.60;10.07;;;;;;;24.20;100.00;101044.94;5094027;28;20016;-79
2023/08/24 11:50:07;;;;;;;14.45;9.85;;;;;;;24.02;100.00;101022.84;5076141;28;20039;-79
2023/08/24 11:52:39;;;;;;;17.55;10.73;;;;;;;23.89;100.00;101006.41;5094422;28;20388;-78
2023/08/24 11:55:06;;;;;;;13.95;9.57;;;;;;;24.07;100.00;101000.09;5075778;28;20113;-79
2023/08/24 11:57:33;;;;;;;14.88;10.18;;;;;;;24.50;100.00;100999.84;5075997;28;20407;-79
2023/08/24 11:59:59;;;;;;;15.38;9.75;;;;;;;24.94;100.00;100993.78;5093398;28;20040;-79
2023/08/24 12:02:25;;;;;;;15.40;9.27;;;;;;;25.44;100.00;100989.09;5094085;28;20026;-79